Sunday, December 17, 2017, 10:14 PM EST
Back to Local

KFIT, Fitchburg, Fitchburg Municipal Airport

Location: Leominster, MA, United States Lat: 42.552
Local Time: 10:14 PM EST ( 3:14 GMT) Lon: -71.756
Time Zone: US/Eastern Elev: 347 ft

Show me the last for .
Show Decoded

2017-12-17 21:52 METAR KFIT 180252Z AUTO 00000KT 10SM CLR M06/M13 A3026 RMK AO2 SLP252 T10561128
                 50001 =
2017-12-17 20:52 METAR KFIT 180152Z AUTO 32003KT 10SM CLR M04/M13 A3027 RMK AO2 SLP255 T10441128
                 =
2017-12-17 19:52 METAR KFIT 180052Z AUTO 29004KT 10SM CLR M04/M13 A3028 RMK AO2 SLP259 T10391128
                 =
2017-12-17 18:52 METAR KFIT 172352Z AUTO 00000KT 10SM CLR M06/M12 A3025 RMK AO2 SLP252 T10611117
                 11011 21061 53007 =
2017-12-17 17:52 METAR KFIT 172252Z AUTO 34003KT 10SM CLR M04/M13 A3024 RMK AO2 SLP247 T10391133
                 =
2017-12-17 16:52 METAR KFIT 172152Z AUTO 36003KT 10SM CLR M03/M13 A3024 RMK AO2 SLP248 T10331133
                 =
2017-12-17 15:52 METAR KFIT 172052Z AUTO 33004KT 10SM CLR M03/M13 A3023 RMK AO2 SLP245 T10281128
                 53001 =
2017-12-17 14:52 METAR KFIT 171952Z AUTO 30008KT 10SM CLR M02/M13 A3021 RMK AO2 SLP236 T10221133
                 =
2017-12-17 13:52 METAR KFIT 171852Z AUTO 32010KT 10SM CLR M02/M14 A3021 RMK AO2 SLP236 T10171144
                 =
2017-12-17 12:52 METAR KFIT 171752Z AUTO 33010KT 10SM CLR M02/M15 A3023 RMK AO2 SLP243 T10171150
                 11017 21094 58015 =
2017-12-17 11:52 METAR KFIT 171652Z AUTO 30008KT 10SM CLR M02/M13 A3025 RMK AO2 SLP251 T10221133
                 =
2017-12-17 10:52 METAR KFIT 171552Z AUTO 29013KT 10SM CLR M03/M14 A3027 RMK AO2 SLP255 T10331144
                 =
2017-12-17 09:52 METAR KFIT 171452Z AUTO 30011KT 10SM CLR M05/M14 A3027 RMK AO2 SLP257 T10501144
                 51009 =
2017-12-17 08:52 METAR KFIT 171352Z AUTO 33004KT 10SM CLR M07/M14 A3027 RMK AO2 SLP255 T10671144
                 =
2017-12-17 07:52 METAR KFIT 171252Z AUTO 00000KT 10SM CLR M09/M14 A3026 RMK AO2 SLP252 T10891139
                 =
2017-12-17 06:52 METAR KFIT 171152Z AUTO 32004KT 10SM FEW120 M09/M14 A3025 RMK AO2 SLP248 I6000
                 T10891139 11083 21128 50012 =
2017-12-17 05:52 METAR KFIT 171052Z AUTO 00000KT 10SM CLR M09/M14 A3026 RMK AO2 SLP252 T10941139
                 =
2017-12-17 04:52 METAR KFIT 170952Z AUTO 00000KT 10SM CLR M13/M15 A3023 RMK AO2 SLP244 I1000
                 T11281150 =
2017-12-17 03:52 METAR KFIT 170852Z AUTO 00000KT 10SM CLR M12/M14 A3021 RMK AO2 SLP236 I1000
                 I3000 T11221144 51012 =
2017-12-17 02:52 METAR KFIT 170752Z AUTO 00000KT 10SM CLR M11/M13 A3020 RMK AO2 SLP234 T11061133
                 =
2017-12-17 01:52 METAR KFIT 170652Z AUTO 03003KT 10SM CLR M10/M13 A3019 RMK AO2 SLP228 I1000
                 T11001128 =
2017-12-17 00:52 METAR KFIT 170552Z AUTO 00000KT 10SM CLR M10/M12 A3017 RMK AO2 SLP224 60000
                 T11001117 11022 21117 51014 =
2017-12-16 23:52 METAR KFIT 170452Z AUTO 00000KT 10SM CLR M09/M11 A3016 RMK AO2 SLP219 T10891111
                 400001100 =
2017-12-16 22:52 METAR KFIT 170352Z AUTO 00000KT 10SM CLR M07/M11 A3015 RMK AO2 SLP216 T10671106
                 =

Support USWX by starting your Amazon purchase here.